Time;durP1;ratioP1;P1;durP2;ratioP2;P2;SDS_P1;SDS_P2;PMS_P1;PMS_P2;Temp;Humidity;BMP_temperature;BMP_pressure;BME280_temperature;BME280_humidity;BME280_pressure;Samples;Min_cycle;Max_cycle;Signal;HPM_P1;HPM_P2
2022/07/22 00:01:51;;;;;;;16.05;4.85;;;17.00;99.90;;;;;;5071308;28;20044;-60
2022/07/22 00:04:17;;;;;;;11.80;3.88;;;17.00;99.90;;;;;;5073415;28;20087;-60
2022/07/22 00:06:43;;;;;;;12.10;3.58;;;17.00;99.90;;;;;;5068212;28;20052;-60
2022/07/22 00:09:09;;;;;;;9.35;4.07;;;17.00;99.90;;;;;;5073482;28;20072;-61
2022/07/22 00:11:35;;;;;;;6.88;3.45;;;17.00;99.90;;;;;;5069355;28;20045;-60
2022/07/22 00:14:01;;;;;;;12.77;3.40;;;17.00;99.90;;;;;;5061266;28;20193;-61
2022/07/22 00:16:27;;;;;;;13.80;3.70;;;16.90;99.90;;;;;;5070883;28;20367;-61
2022/07/22 00:18:53;;;;;;;14.70;3.95;;;16.90;99.90;;;;;;5065262;28;20118;-60
2022/07/22 00:21:19;;;;;;;9.43;4.15;;;16.90;99.90;;;;;;5066483;28;20577;-61
2022/07/22 00:23:44;;;;;;;9.43;3.22;;;17.00;99.90;;;;;;5060709;28;20052;-60
2022/07/22 00:26:10;;;;;;;14.38;3.35;;;17.00;99.90;;;;;;5064389;28;20075;-61
2022/07/22 00:28:36;;;;;;;10.50;3.55;;;16.90;99.90;;;;;;5068932;28;20057;-61
2022/07/22 00:31:02;;;;;;;11.75;3.50;;;16.90;99.90;;;;;;5072961;28;20473;-60
2022/07/22 00:33:28;;;;;;;10.75;3.47;;;16.90;99.90;;;;;;5062807;28;20049;-59
2022/07/22 00:35:53;;;;;;;9.25;3.28;;;16.90;99.90;;;;;;5070499;28;20076;-62
2022/07/22 00:38:19;;;;;;;12.15;2.72;;;16.90;99.90;;;;;;5071191;28;20123;-59
2022/07/22 00:40:45;;;;;;;8.23;2.58;;;16.90;99.90;;;;;;5073151;28;20045;-59
2022/07/22 00:43:11;;;;;;;8.45;2.80;;;16.80;99.90;;;;;;5067205;28;20044;-61
2022/07/22 00:45:36;;;;;;;7.05;2.72;;;16.80;99.90;;;;;;5069863;28;20052;-59
2022/07/22 00:48:03;;;;;;;9.77;2.50;;;16.80;99.90;;;;;;5065163;28;20051;-59
2022/07/22 00:50:29;;;;;;;12.85;2.83;;;16.80;99.90;;;;;;5071549;28;20120;-59
2022/07/22 00:52:55;;;;;;;10.57;3.03;;;16.80;99.90;;;;;;5071428;28;20052;-60
2022/07/22 00:55:21;;;;;;;10.07;2.92;;;16.80;99.90;;;;;;5069969;28;20044;-60
2022/07/22 00:57:47;;;;;;;9.38;2.80;;;16.90;99.90;;;;;;5067015;28;20436;-60
2022/07/22 01:00:16;;;;;;;5.85;2.42;;;16.90;99.90;;;;;;5072423;28;20093;-60
2022/07/22 01:02:42;;;;;;;8.32;2.92;;;16.80;99.90;;;;;;5072694;28;20138;-59
2022/07/22 01:05:08;;;;;;;9.82;3.15;;;16.80;99.90;;;;;;5069312;28;20049;-60
2022/07/22 01:07:34;;;;;;;11.02;3.10;;;16.80;99.90;;;;;;5067411;28;20053;-60
2022/07/22 01:09:59;;;;;;;12.80;2.67;;;16.80;99.90;;;;;;5069455;28;20051;-59
2022/07/22 01:12:25;;;;;;;10.10;2.40;;;16.80;99.90;;;;;;5062299;28;20037;-59
2022/07/22 01:14:51;;;;;;;6.60;2.40;;;16.80;99.90;;;;;;5065055;28;20500;-59
2022/07/22 01:17:17;;;;;;;5.82;2.35;;;16.80;99.90;;;;;;5071843;28;20401;-61
2022/07/22 01:19:42;;;;;;;7.50;2.40;;;16.90;99.90;;;;;;5070102;28;20040;-59
2022/07/22 01:22:08;;;;;;;7.55;2.40;;;16.80;99.90;;;;;;5071851;28;20504;-60
2022/07/22 01:24:35;;;;;;;6.90;2.42;;;16.80;99.90;;;;;;5072178;28;20070;-59
2022/07/22 01:27:01;;;;;;;7.43;2.58;;;16.80;99.90;;;;;;5070414;28;20102;-60
2022/07/22 01:29:26;;;;;;;10.80;2.55;;;16.80;99.90;;;;;;5070627;28;20756;-59
2022/07/22 01:31:52;;;;;;;8.55;2.40;;;16.90;99.90;;;;;;5072127;28;20080;-59
2022/07/22 01:34:18;;;;;;;8.38;2.42;;;16.90;99.90;;;;;;5070894;28;20493;-59
2022/07/22 01:36:44;;;;;;;7.95;2.40;;;16.80;99.90;;;;;;5069808;28;20131;-60
2022/07/22 01:39:11;;;;;;;11.10;2.88;;;16.80;99.90;;;;;;5053327;28;20032;-61
2022/07/22 01:41:37;;;;;;;6.93;2.42;;;16.80;99.90;;;;;;5071895;28;20494;-60
2022/07/22 01:44:03;;;;;;;9.88;2.47;;;16.80;99.90;;;;;;5070582;28;20087;-60
2022/07/22 01:46:28;;;;;;;6.85;2.42;;;16.70;99.90;;;;;;5068587;28;20032;-59
2022/07/22 01:48:54;;;;;;;8.32;2.13;;;16.70;99.90;;;;;;5065914;28;20080;-62
2022/07/22 01:51:20;;;;;;;9.35;2.47;;;16.70;99.90;;;;;;5058110;28;20066;-59
2022/07/22 01:53:46;;;;;;;7.57;1.90;;;16.70;99.90;;;;;;5071965;28;20037;-60
2022/07/22 01:56:11;;;;;;;6.32;1.90;;;16.70;99.90;;;;;;5066715;28;20048;-60
2022/07/22 01:58:37;;;;;;;7.40;2.03;;;16.70;99.90;;;;;;5048516;28;20059;-59
2022/07/22 02:01:03;;;;;;;5.57;2.30;;;16.70;99.90;;;;;;5071945;28;20174;-59
2022/07/22 02:03:29;;;;;;;5.25;2.05;;;16.70;99.90;;;;;;5070106;28;20115;-60
2022/07/22 02:05:55;;;;;;;7.05;2.00;;;16.70;99.90;;;;;;5071352;28;20131;-60
2022/07/22 02:08:21;;;;;;;10.90;2.40;;;16.70;99.90;;;;;;5065572;28;20048;-60
2022/07/22 02:10:47;;;;;;;6.38;1.95;;;16.70;99.90;;;;;;5069832;28;20051;-59
2022/07/22 02:13:13;;;;;;;8.48;2.65;;;16.70;99.90;;;;;;5056899;28;20045;-61
2022/07/22 02:15:39;;;;;;;5.25;2.30;;;16.60;99.90;;;;;;5070224;28;20048;-60
2022/07/22 02:18:13;;;;;;;9.02;2.30;;;16.70;99.90;;;;;;5066822;28;20040;-60
2022/07/22 02:20:39;;;;;;;7.30;1.90;;;16.60;99.90;;;;;;5057812;28;20403;-60
2022/07/22 02:23:06;;;;;;;5.97;2.00;;;16.60;99.90;;;;;;5071441;28;20395;-59
2022/07/22 02:25:33;;;;;;;9.38;2.45;;;16.70;99.90;;;;;;5068957;28;20127;-60
2022/07/22 02:27:59;;;;;;;7.28;2.15;;;16.70;99.90;;;;;;5056771;28;20124;-60
2022/07/22 02:30:24;;;;;;;6.97;2.03;;;16.70;99.90;;;;;;5056012;28;20132;-60
2022/07/22 02:32:50;;;;;;;5.70;1.85;;;16.70;99.90;;;;;;5062416;28;20047;-60
2022/07/22 02:35:16;;;;;;;6.60;2.10;;;16.70;99.90;;;;;;5053159;28;20440;-59
2022/07/22 02:37:41;;;;;;;8.40;2.30;;;16.70;99.90;;;;;;5068326;28;20048;-60
2022/07/22 02:40:08;;;;;;;7.55;2.38;;;16.70;99.90;;;;;;5059998;28;20049;-59
2022/07/22 02:42:34;;;;;;;9.75;2.47;;;16.70;99.90;;;;;;5068965;28;20565;-60
2022/07/22 02:45:00;;;;;;;6.35;2.15;;;16.70;99.90;;;;;;5058180;28;20050;-60
2022/07/22 02:47:26;;;;;;;8.70;2.08;;;16.70;99.90;;;;;;5069380;28;20052;-60
2022/07/22 02:49:51;;;;;;;5.80;2.00;;;16.70;99.90;;;;;;5063768;28;20102;-59
2022/07/22 02:52:17;;;;;;;7.25;2.22;;;16.60;99.90;;;;;;5061735;28;20116;-60
2022/07/22 02:54:43;;;;;;;9.43;2.63;;;16.60;99.90;;;;;;5056754;28;20119;-61
2022/07/22 02:57:09;;;;;;;8.25;2.17;;;16.60;99.90;;;;;;5052900;28;20416;-60
2022/07/22 02:59:35;;;;;;;7.10;2.25;;;16.60;99.90;;;;;;5064203;28;20052;-60
2022/07/22 03:02:01;;;;;;;5.88;2.30;;;16.60;99.90;;;;;;5066534;28;20072;-60
2022/07/22 03:04:27;;;;;;;7.78;2.42;;;16.60;99.90;;;;;;5070142;28;20086;-60
2022/07/22 03:06:52;;;;;;;7.55;2.03;;;16.60;99.90;;;;;;5069137;28;20151;-60
2022/07/22 03:09:19;;;;;;;7.25;2.00;;;16.60;99.90;;;;;;5069218;28;20049;-60
2022/07/22 03:11:44;;;;;;;7.93;2.30;;;16.60;99.90;;;;;;5052985;28;20049;-60
2022/07/22 03:14:11;;;;;;;9.18;2.15;;;16.60;99.90;;;;;;5069396;28;20166;-60
2022/07/22 03:16:37;;;;;;;5.22;1.90;;;16.60;99.90;;;;;;5070276;28;20083;-60
2022/07/22 03:19:02;;;;;;;7.43;2.10;;;16.60;99.90;;;;;;5070063;28;20401;-60
2022/07/22 03:21:28;;;;;;;5.28;2.30;;;16.60;99.90;;;;;;5064584;28;20037;-60
2022/07/22 03:23:54;;;;;;;9.98;2.85;;;16.60;99.90;;;;;;5064668;28;20064;-61
2022/07/22 03:26:24;;;;;;;5.75;2.03;;;16.60;99.90;;;;;;5069976;28;20052;-60
2022/07/22 03:28:51;;;;;;;6.72;2.00;;;16.60;99.90;;;;;;5070358;28;20047;-60
2022/07/22 03:31:17;;;;;;;12.10;2.65;;;16.50;99.90;;;;;;5068271;28;20072;-61
2022/07/22 03:33:43;;;;;;;6.20;2.28;;;16.50;99.90;;;;;;5050064;28;20049;-60
2022/07/22 03:36:09;;;;;;;9.50;2.05;;;16.50;99.90;;;;;;5056004;28;20045;-60
2022/07/22 03:38:36;;;;;;;11.93;2.55;;;16.50;99.90;;;;;;5069912;28;20049;-60
2022/07/22 03:41:02;;;;;;;5.65;2.05;;;16.50;99.90;;;;;;5070341;28;20040;-60
2022/07/22 03:43:29;;;;;;;7.63;2.10;;;16.50;99.90;;;;;;5056562;28;20080;-60
2022/07/22 03:45:54;;;;;;;7.30;1.92;;;16.50;99.90;;;;;;5067291;28;20135;-60
2022/07/22 03:48:20;;;;;;;9.60;2.75;;;16.50;99.90;;;;;;5068868;28;20159;-60
2022/07/22 03:50:46;;;;;;;13.30;2.67;;;16.50;99.90;;;;;;5052238;28;20056;-59
2022/07/22 03:53:11;;;;;;;13.05;2.45;;;16.50;99.90;;;;;;5067711;28;20044;-60
2022/07/22 03:55:37;;;;;;;9.23;2.30;;;16.50;99.90;;;;;;5069698;28;20044;-60
2022/07/22 03:58:03;;;;;;;8.52;2.42;;;16.50;99.90;;;;;;5068944;28;20044;-60
2022/07/22 04:00:29;;;;;;;7.95;2.20;;;16.50;99.90;;;;;;5068367;28;20424;-60
2022/07/22 04:02:55;;;;;;;5.47;1.95;;;16.50;99.90;;;;;;5067242;28;20084;-60
2022/07/22 04:05:21;;;;;;;7.35;2.20;;;16.50;99.90;;;;;;5054554;28;20129;-63
2022/07/22 04:07:46;;;;;;;5.40;1.88;;;16.50;99.90;;;;;;5052198;28;20049;-59
2022/07/22 04:10:12;;;;;;;8.57;2.00;;;16.50;99.90;;;;;;5052626;28;20045;-60
2022/07/22 04:12:39;;;;;;;7.07;2.47;;;16.50;99.90;;;;;;5049764;28;20040;-60
2022/07/22 04:15:07;;;;;;;6.28;2.50;;;16.50;99.90;;;;;;5058505;28;20049;-60
2022/07/22 04:17:33;;;;;;;5.43;2.03;;;16.50;99.90;;;;;;5053160;28;20402;-59
2022/07/22 04:20:00;;;;;;;7.88;1.80;;;16.50;99.90;;;;;;5053332;28;20403;-60
2022/07/22 04:22:29;;;;;;;7.68;2.10;;;16.50;99.90;;;;;;5056184;28;20075;-59
2022/07/22 04:24:55;;;;;;;6.60;2.20;;;16.50;99.90;;;;;;5054231;28;20041;-60
2022/07/22 04:27:23;;;;;;;7.25;2.45;;;16.50;99.90;;;;;;5052067;28;20037;-59
2022/07/22 04:29:49;;;;;;;7.13;1.92;;;16.50;99.90;;;;;;5053027;28;20057;-59
2022/07/22 04:32:15;;;;;;;8.00;1.80;;;16.50;99.90;;;;;;5055025;28;20041;-59
2022/07/22 04:34:41;;;;;;;6.80;2.47;;;16.50;99.90;;;;;;5055902;28;20044;-59
2022/07/22 04:37:07;;;;;;;9.77;2.38;;;16.50;99.90;;;;;;5059324;28;20088;-60
2022/07/22 04:39:33;;;;;;;7.75;2.20;;;16.50;99.90;;;;;;5054027;28;20075;-60
2022/07/22 04:41:58;;;;;;;6.45;2.13;;;16.50;99.90;;;;;;5072632;28;20041;-59
2022/07/22 04:44:24;;;;;;;6.93;2.30;;;16.50;99.90;;;;;;5073048;28;20044;-60
2022/07/22 04:46:50;;;;;;;6.97;2.25;;;16.50;99.90;;;;;;5063493;28;20128;-59
2022/07/22 04:49:15;;;;;;;6.70;2.10;;;16.50;99.90;;;;;;5072856;28;20473;-60
2022/07/22 04:51:41;;;;;;;10.70;2.22;;;16.50;99.90;;;;;;5068725;28;20037;-60
2022/07/22 04:54:07;;;;;;;6.53;2.28;;;16.50;99.90;;;;;;5070792;28;20048;-60
2022/07/22 04:56:32;;;;;;;6.40;1.98;;;16.50;99.90;;;;;;5052585;28;20106;-59
2022/07/22 04:58:58;;;;;;;5.35;2.47;;;16.50;99.90;;;;;;5072787;28;20091;-60
2022/07/22 05:01:24;;;;;;;7.45;1.88;;;16.60;99.90;;;;;;5072641;28;20072;-62
2022/07/22 05:03:51;;;;;;;6.53;1.70;;;16.60;99.90;;;;;;5067489;28;20044;-60
2022/07/22 05:06:17;;;;;;;5.45;1.92;;;16.60;99.90;;;;;;5071018;28;20446;-60
2022/07/22 05:08:43;;;;;;;5.07;2.30;;;16.60;99.90;;;;;;5070456;28;20494;-60
2022/07/22 05:11:09;;;;;;;10.27;1.95;;;16.60;99.90;;;;;;5071372;28;20116;-60
2022/07/22 05:13:35;;;;;;;6.50;1.80;;;16.60;99.90;;;;;;5065598;28;20040;-60
2022/07/22 05:16:05;;;;;;;5.43;1.95;;;16.60;99.90;;;;;;5072505;28;20123;-60
2022/07/22 05:18:31;;;;;;;8.05;2.28;;;16.60;99.90;;;;;;5070191;28;20103;-61
2022/07/22 05:20:57;;;;;;;7.28;2.00;;;16.50;99.90;;;;;;5072408;28;20044;-60
2022/07/22 05:23:22;;;;;;;9.63;2.53;;;16.60;99.90;;;;;;5070005;28;20131;-60
2022/07/22 05:25:48;;;;;;;5.93;2.17;;;16.50;99.90;;;;;;5071878;28;20041;-60
2022/07/22 05:28:14;;;;;;;6.57;1.83;;;16.60;99.90;;;;;;5070476;28;20190;-59
2022/07/22 05:30:40;;;;;;;8.15;2.10;;;16.60;99.90;;;;;;5071791;28;20509;-59
2022/07/22 05:33:05;;;;;;;6.20;2.22;;;16.60;99.90;;;;;;5071262;28;20127;-60
2022/07/22 05:35:31;;;;;;;7.60;2.13;;;16.60;99.90;;;;;;5055177;28;20048;-60
2022/07/22 05:37:57;;;;;;;7.93;2.22;;;16.70;99.90;;;;;;5053901;28;20094;-60
2022/07/22 05:40:22;;;;;;;7.18;1.85;;;16.60;99.90;;;;;;5069962;28;20036;-60
2022/07/22 05:42:48;;;;;;;6.55;1.98;;;16.60;99.90;;;;;;5058286;28;20044;-60
2022/07/22 05:45:14;;;;;;;5.72;1.77;;;16.70;99.90;;;;;;5070103;28;20052;-61
2022/07/22 05:47:39;;;;;;;7.10;2.00;;;16.70;99.90;;;;;;5071221;28;20405;-60
2022/07/22 05:50:05;;;;;;;7.57;1.73;;;16.70;99.90;;;;;;5068944;28;20075;-61
2022/07/22 05:52:31;;;;;;;5.47;2.20;;;16.80;99.90;;;;;;5053911;28;20049;-61
2022/07/22 05:55:00;;;;;;;5.28;2.05;;;16.80;99.90;;;;;;5069230;28;20064;-60
2022/07/22 05:57:25;;;;;;;5.93;2.25;;;16.80;99.90;;;;;;5071733;28;20434;-61
2022/07/22 05:59:51;;;;;;;5.18;1.83;;;16.80;99.90;;;;;;5069381;28;20067;-61
2022/07/22 06:02:17;;;;;;;5.72;2.00;;;16.90;99.90;;;;;;5070379;28;20474;-61
2022/07/22 06:04:42;;;;;;;4.82;1.80;;;16.90;99.90;;;;;;5068560;28;20081;-61
2022/07/22 06:07:08;;;;;;;6.22;1.83;;;16.90;99.90;;;;;;5045786;28;20140;-61
2022/07/22 06:09:34;;;;;;;4.93;1.95;;;16.90;99.90;;;;;;5067225;28;20323;-61
2022/07/22 06:12:00;;;;;;;4.32;1.75;;;16.90;99.90;;;;;;5067999;28;20230;-61
2022/07/22 06:14:25;;;;;;;6.40;1.92;;;16.90;99.90;;;;;;5069183;28;20078;-61
2022/07/22 06:16:51;;;;;;;5.97;2.10;;;16.90;99.90;;;;;;5062675;28;20045;-62
2022/07/22 06:19:17;;;;;;;6.30;2.05;;;17.00;99.90;;;;;;5069991;28;20375;-61
2022/07/22 06:21:42;;;;;;;6.07;1.85;;;17.00;99.90;;;;;;5066283;28;20047;-61
2022/07/22 06:24:08;;;;;;;5.22;2.08;;;17.00;99.90;;;;;;5064409;28;20052;-61
2022/07/22 06:26:34;;;;;;;6.00;2.08;;;17.00;99.90;;;;;;5068016;28;20040;-61
2022/07/22 06:29:00;;;;;;;6.78;2.40;;;17.00;99.90;;;;;;5068989;28;20040;-61
2022/07/22 06:31:26;;;;;;;7.97;1.98;;;17.10;99.90;;;;;;5066373;28;20053;-60
2022/07/22 06:33:51;;;;;;;5.55;1.92;;;17.10;99.90;;;;;;5050340;28;20052;-61
2022/07/22 06:36:17;;;;;;;6.88;1.80;;;17.20;99.90;;;;;;5056524;28;20107;-60
2022/07/22 06:38:43;;;;;;;6.60;1.85;;;17.20;99.90;;;;;;5053854;28;20041;-61
2022/07/22 06:41:10;;;;;;;6.53;2.03;;;17.20;99.90;;;;;;5032788;28;20041;-61
2022/07/22 06:43:35;;;;;;;5.85;1.92;;;17.30;99.90;;;;;;5051682;28;20060;-61
2022/07/22 06:46:01;;;;;;;6.53;1.80;;;17.30;99.90;;;;;;5065894;28;20224;-61
2022/07/22 06:48:27;;;;;;;5.85;1.85;;;17.30;99.90;;;;;;5054823;28;20080;-62
2022/07/22 06:50:53;;;;;;;4.47;1.83;;;17.40;99.90;;;;;;5050218;28;20047;-61
2022/07/22 06:53:19;;;;;;;6.05;2.03;;;17.40;99.90;;;;;;5050655;28;20051;-61
2022/07/22 06:55:45;;;;;;;8.05;1.90;;;17.50;99.90;;;;;;5065468;28;20522;-63
2022/07/22 06:58:11;;;;;;;8.93;1.70;;;17.50;99.90;;;;;;5056288;28;20154;-64
2022/07/22 07:00:37;;;;;;;5.45;1.90;;;17.50;99.90;;;;;;5050693;28;20044;-61
2022/07/22 07:03:02;;;;;;;5.40;1.50;;;17.60;99.90;;;;;;5049771;28;20076;-61
2022/07/22 07:05:28;;;;;;;5.07;1.75;;;17.60;99.90;;;;;;5036614;28;20068;-61
2022/07/22 07:07:55;;;;;;;4.97;1.80;;;17.60;99.90;;;;;;5052699;28;20044;-61
2022/07/22 07:10:21;;;;;;;8.48;2.00;;;17.70;99.90;;;;;;5039359;28;20122;-61
2022/07/22 07:12:47;;;;;;;3.50;1.30;;;17.80;99.90;;;;;;5058138;28;20043;-61
2022/07/22 07:15:12;;;;;;;3.90;1.73;;;17.80;99.90;;;;;;5062883;28;20044;-61
2022/07/22 07:17:38;;;;;;;6.53;1.83;;;17.80;99.90;;;;;;5062516;28;20408;-62
2022/07/22 07:20:06;;;;;;;4.15;1.48;;;17.80;99.90;;;;;;5063241;28;20120;-61
2022/07/22 07:22:32;;;;;;;6.85;1.40;;;17.80;99.90;;;;;;5062694;28;20037;-62
2022/07/22 07:25:03;;;;;;;2.50;1.35;;;17.90;99.90;;;;;;5060170;28;20058;-62
2022/07/22 07:27:28;;;;;;;5.85;1.35;;;17.90;99.90;;;;;;5053385;28;20045;-61
2022/07/22 07:29:54;;;;;;;5.93;1.63;;;17.90;99.90;;;;;;5051742;28;20060;-62
2022/07/22 07:32:19;;;;;;;5.68;1.70;;;17.90;99.90;;;;;;5065495;28;20063;-62
2022/07/22 07:34:45;;;;;;;6.18;1.65;;;18.00;99.90;;;;;;5052544;28;20132;-62
2022/07/22 07:37:11;;;;;;;5.97;1.90;;;18.00;99.90;;;;;;5051290;28;20052;-61
2022/07/22 07:39:36;;;;;;;4.57;1.70;;;18.10;99.90;;;;;;5049289;28;20493;-62
2022/07/22 07:42:03;;;;;;;4.82;1.30;;;18.20;99.90;;;;;;5048031;28;20044;-62
2022/07/22 07:44:28;;;;;;;4.32;1.60;;;18.10;99.90;;;;;;5063963;28;20052;-62
2022/07/22 07:46:54;;;;;;;3.15;1.48;;;18.20;99.90;;;;;;5054430;28;20495;-62
2022/07/22 07:49:20;;;;;;;6.55;2.20;;;18.20;99.90;;;;;;5060002;28;20488;-61
2022/07/22 07:51:46;;;;;;;6.18;1.52;;;18.30;99.90;;;;;;5062256;28;20468;-62
2022/07/22 07:54:11;;;;;;;5.18;1.48;;;18.30;99.90;;;;;;5051672;28;20490;-62
2022/07/22 07:56:37;;;;;;;2.75;1.08;;;18.40;99.90;;;;;;5056497;28;20151;-62
2022/07/22 07:59:03;;;;;;;3.67;1.02;;;18.50;99.90;;;;;;5053375;28;20048;-62
2022/07/22 08:01:29;;;;;;;4.30;1.25;;;18.50;99.90;;;;;;5075698;28;20049;-62
2022/07/22 08:03:55;;;;;;;4.97;1.50;;;18.40;99.90;;;;;;5052159;28;20344;-63
2022/07/22 08:06:20;;;;;;;3.75;1.30;;;18.50;99.90;;;;;;5057816;28;20061;-61
2022/07/22 08:08:46;;;;;;;4.82;1.48;;;18.50;99.90;;;;;;5059259;28;20041;-61
2022/07/22 08:11:12;;;;;;;3.67;1.20;;;18.50;99.90;;;;;;5058798;28;20052;-64
2022/07/22 08:13:37;;;;;;;3.97;1.25;;;18.50;99.90;;;;;;5055817;28;20056;-62
2022/07/22 08:16:04;;;;;;;5.40;1.40;;;18.50;99.90;;;;;;5052428;28;20057;-61
2022/07/22 08:18:30;;;;;;;7.53;1.50;;;18.50;99.90;;;;;;5069541;28;20048;-61
2022/07/22 08:20:56;;;;;;;5.95;1.60;;;18.50;99.90;;;;;;5062537;28;20045;-63
2022/07/22 08:23:22;;;;;;;6.53;1.65;;;18.50;99.90;;;;;;5059827;28;20113;-61
2022/07/22 08:25:48;;;;;;;6.13;1.83;;;18.50;99.90;;;;;;5052278;28;20044;-61
2022/07/22 08:28:14;;;;;;;4.25;1.40;;;18.50;99.90;;;;;;5056456;28;20062;-61
2022/07/22 08:30:40;;;;;;;6.18;2.03;;;18.50;99.90;;;;;;5034669;28;20052;-61
2022/07/22 08:33:06;;;;;;;7.10;1.73;;;18.40;99.90;;;;;;5067504;28;20152;-62
2022/07/22 08:35:32;;;;;;;4.60;1.63;;;18.40;99.90;;;;;;5068878;28;20060;-61
2022/07/22 08:37:58;;;;;;;4.97;1.48;;;18.40;99.90;;;;;;5062886;28;20041;-64
2022/07/22 08:40:24;;;;;;;4.85;1.77;;;18.30;99.90;;;;;;5052851;28;20409;-61
2022/07/22 08:42:51;;;;;;;5.55;1.40;;;18.30;99.90;;;;;;5065387;28;20640;-61
2022/07/22 08:45:17;;;;;;;5.82;1.77;;;18.20;99.90;;;;;;5052309;28;20053;-60
2022/07/22 08:47:49;;;;;;;7.15;1.55;;;18.20;99.90;;;;;;5052673;28;20204;-61
2022/07/22 08:50:16;;;;;;;5.82;1.67;;;18.10;99.90;;;;;;5052246;28;20051;-61
2022/07/22 08:52:42;;;;;;;5.88;1.60;;;18.10;99.90;;;;;;5064249;28;20032;-61
2022/07/22 08:55:08;;;;;;;6.55;1.58;;;18.10;99.90;;;;;;5053250;28;20080;-61
2022/07/22 08:57:36;;;;;;;7.75;1.80;;;18.10;99.90;;;;;;5072050;28;20076;-60
2022/07/22 09:00:10;;;;;;;6.43;1.77;;;18.10;99.90;;;;;;5052966;28;20044;-62
2022/07/22 09:02:38;;;;;;;5.85;2.08;;;18.00;99.90;;;;;;5064820;28;20044;-59
2022/07/22 09:05:07;;;;;;;5.25;1.52;;;18.10;99.90;;;;;;5058460;28;20060;-62
2022/07/22 09:07:36;;;;;;;5.80;1.73;;;18.10;99.90;;;;;;5038896;28;20132;-62
2022/07/22 09:10:04;;;;;;;6.68;1.35;;;18.20;99.90;;;;;;5052240;28;20433;-64
2022/07/22 09:12:32;;;;;;;4.40;1.38;;;18.30;99.90;;;;;;5060697;28;20124;-60
2022/07/22 09:14:59;;;;;;;4.63;1.30;;;18.40;99.90;;;;;;5078379;28;20478;-60
2022/07/22 09:17:35;;;;;;;5.18;1.48;;;18.40;99.90;;;;;;5070098;28;20049;-60
2022/07/22 09:20:14;;;;;;;8.50;1.92;;;18.50;99.90;;;;;;5071174;28;20048;-60
2022/07/22 09:22:43;;;;;;;6.35;1.80;;;18.60;99.90;;;;;;5070760;28;20047;-60
2022/07/22 09:25:26;;;;;;;4.85;1.55;;;18.70;99.90;;;;;;5054655;28;20122;-60
2022/07/22 09:28:08;;;;;;;5.00;1.73;;;18.70;99.90;;;;;;5062217;28;20053;-60
2022/07/22 09:30:38;;;;;;;4.38;1.42;;;18.80;99.90;;;;;;5052386;28;20049;-60
2022/07/22 09:33:04;;;;;;;5.13;1.55;;;18.80;99.90;;;;;;5053825;28;20044;-60
2022/07/22 09:35:31;;;;;;;5.97;1.60;;;18.80;99.90;;;;;;5064586;28;20044;-60
2022/07/22 09:38:05;;;;;;;5.57;1.50;;;18.80;99.90;;;;;;5064185;28;20132;-60
2022/07/22 09:40:34;;;;;;;4.47;1.50;;;18.70;99.90;;;;;;5065139;28;20095;-61
2022/07/22 09:43:06;;;;;;;7.18;1.65;;;18.70;99.90;;;;;;5051889;28;20056;-61
2022/07/22 09:45:33;;;;;;;5.40;1.63;;;18.70;99.90;;;;;;5054957;28;20122;-60
2022/07/22 09:48:01;;;;;;;4.97;1.58;;;18.60;99.90;;;;;;5052661;28;20457;-60
2022/07/22 09:50:28;;;;;;;4.45;1.50;;;18.60;99.90;;;;;;5051208;28;20057;-61
2022/07/22 09:52:56;;;;;;;4.85;1.50;;;18.60;99.90;;;;;;5050185;28;20051;-60
2022/07/22 09:55:23;;;;;;;4.47;1.30;;;18.70;99.90;;;;;;5060452;28;20041;-60
2022/07/22 09:57:51;;;;;;;2.00;1.10;;;18.80;99.90;;;;;;5053389;28;20135;-60
2022/07/22 10:00:20;;;;;;;5.43;1.20;;;18.90;99.90;;;;;;5050858;28;20375;-60
2022/07/22 10:02:57;;;;;;;4.25;1.40;;;18.90;99.90;;;;;;5051341;28;20051;-60
2022/07/22 10:05:36;;;;;;;3.28;1.33;;;18.90;99.90;;;;;;5053517;28;20136;-60
2022/07/22 10:08:03;;;;;;;5.50;1.23;;;18.90;99.90;;;;;;5052575;28;20056;-60
2022/07/22 10:10:31;;;;;;;3.85;1.27;;;19.00;99.90;;;;;;5054333;28;20044;-60
2022/07/22 10:12:58;;;;;;;2.90;1.10;;;19.10;99.90;;;;;;5074029;28;20045;-60
2022/07/22 10:15:26;;;;;;;3.70;1.27;;;19.20;99.90;;;;;;5051352;28;20067;-60
2022/07/22 10:17:55;;;;;;;3.08;1.02;;;19.30;99.90;;;;;;5051071;28;20102;-60
2022/07/22 10:20:24;;;;;;;2.47;1.00;;;19.40;99.90;;;;;;5066071;28;20051;-60
2022/07/22 10:22:54;;;;;;;3.05;1.10;;;19.50;99.90;;;;;;5049763;28;20390;-60
2022/07/22 10:25:23;;;;;;;6.18;1.60;;;19.60;99.90;;;;;;5053586;28;20066;-61
2022/07/22 10:27:59;;;;;;;4.55;1.45;;;19.50;99.90;;;;;;5058317;28;20049;-60
2022/07/22 10:30:28;;;;;;;6.47;1.40;;;19.50;99.90;;;;;;5050630;28;20048;-60
2022/07/22 10:33:17;;;;;;;4.65;1.40;;;19.50;99.90;;;;;;5058045;28;20053;-61
2022/07/22 10:35:42;;;;;;;4.78;1.20;;;19.50;99.90;;;;;;5052679;28;20489;-61
2022/07/22 10:38:10;;;;;;;2.90;1.15;;;19.50;99.90;;;;;;5061550;28;20040;-60
2022/07/22 10:40:59;;;;;;;3.80;1.35;;;19.50;99.90;;;;;;5054880;28;20045;-60
2022/07/22 10:43:41;;;;;;;4.63;1.50;;;19.60;99.90;;;;;;5050267;28;20132;-60
2022/07/22 10:46:07;;;;;;;5.15;1.30;;;19.70;99.90;;;;;;5052887;28;20075;-60
2022/07/22 10:48:35;;;;;;;4.43;1.17;;;19.80;99.90;;;;;;5061873;28;20044;-61
2022/07/22 10:51:11;;;;;;;3.70;1.20;;;19.80;99.90;;;;;;5051214;28;20041;-61
2022/07/22 10:53:46;;;;;;;2.85;1.33;;;19.80;99.90;;;;;;5048075;28;20063;-60
2022/07/22 10:56:17;;;;;;;5.43;1.60;;;19.80;99.90;;;;;;5048001;28;20056;-62
2022/07/22 10:58:48;;;;;;;4.30;1.38;;;19.80;99.90;;;;;;5056730;28;20490;-60
2022/07/22 11:01:16;;;;;;;2.75;1.08;;;19.80;99.90;;;;;;5047549;28;20055;-60
2022/07/22 11:03:44;;;;;;;3.03;1.33;;;19.70;99.90;;;;;;5056964;28;20116;-60
2022/07/22 11:06:20;;;;;;;2.30;1.10;;;20.00;99.90;;;;;;5046166;28;20494;-60
2022/07/22 11:08:51;;;;;;;4.88;1.10;;;20.00;99.90;;;;;;5062741;28;20594;-60
2022/07/22 11:11:18;;;;;;;2.85;0.75;;;20.00;99.90;;;;;;5062814;28;20097;-60
2022/07/22 11:13:46;;;;;;;2.72;1.10;;;20.00;99.90;;;;;;5057409;28;20060;-60
2022/07/22 11:16:23;;;;;;;3.92;1.00;;;19.90;99.90;;;;;;5064488;28;20075;-61
2022/07/22 11:18:57;;;;;;;2.35;0.98;;;19.80;99.90;;;;;;5055869;28;20055;-62
2022/07/22 11:21:26;;;;;;;4.43;0.80;;;19.70;99.90;;;;;;5050838;28;20393;-60
2022/07/22 11:23:54;;;;;;;2.45;0.70;;;19.60;99.90;;;;;;5064696;28;20037;-60
2022/07/22 11:26:44;;;;;;;3.75;0.85;;;19.50;99.90;;;;;;5067592;28;20242;-63
2022/07/22 11:29:15;;;;;;;2.25;1.00;;;19.50;99.90;;;;;;5067864;28;20136;-60
2022/07/22 11:31:41;;;;;;;2.70;1.05;;;19.40;99.90;;;;;;5068914;28;20049;-60
2022/07/22 11:34:13;;;;;;;1.60;0.85;;;19.40;99.90;;;;;;5066551;28;20529;-60
2022/07/22 11:36:42;;;;;;;4.05;1.00;;;19.50;99.90;;;;;;5059987;28;20123;-60
2022/07/22 11:39:11;;;;;;;1.90;0.90;;;19.50;99.90;;;;;;5071395;28;20869;-60
2022/07/22 11:41:37;;;;;;;3.25;0.95;;;19.60;99.90;;;;;;5069043;28;20087;-60
2022/07/22 11:44:03;;;;;;;3.80;0.70;;;19.60;99.90;;;;;;5071197;28;20124;-60
2022/07/22 11:46:40;;;;;;;5.05;0.93;;;19.70;99.90;;;;;;5069650;28;20055;-60
2022/07/22 11:49:07;;;;;;;1.67;1.02;;;19.70;99.90;;;;;;5069875;28;20064;-61
2022/07/22 11:51:35;;;;;;;1.42;0.82;;;19.80;99.90;;;;;;5068483;28;20052;-61
2022/07/22 11:54:02;;;;;;;2.28;0.63;;;19.80;99.90;;;;;;5073871;28;20179;-61
2022/07/22 11:56:28;;;;;;;3.03;0.82;;;19.90;99.90;;;;;;5072643;28;20083;-61
2022/07/22 11:58:55;;;;;;;5.40;1.08;;;20.10;99.90;;;;;;5073716;28;20076;-61
2022/07/22 12:01:24;;;;;;;2.90;0.73;;;20.10;99.90;;;;;;5071800;28;20047;-61
2022/07/22 12:03:57;;;;;;;2.67;0.90;;;20.20;99.90;;;;;;5073274;28;20124;-60
2022/07/22 12:06:23;;;;;;;2.45;0.80;;;20.20;99.90;;;;;;5071702;28;20065;-60
2022/07/22 12:09:03;;;;;;;3.17;0.80;;;20.30;99.90;;;;;;5072733;28;20177;-60
2022/07/22 12:11:29;;;;;;;3.00;1.00;;;20.20;99.90;;;;;;5069631;28;20131;-60
2022/07/22 12:13:55;;;;;;;1.95;0.90;;;20.20;99.90;;;;;;5071777;28;20135;-60
2022/07/22 12:16:28;;;;;;;2.22;0.90;;;20.20;99.90;;;;;;5071498;28;20127;-61
2022/07/22 12:18:53;;;;;;;2.05;0.75;;;20.30;99.90;;;;;;5073113;28;20040;-61
2022/07/22 12:21:21;;;;;;;3.67;1.00;;;20.30;99.90;;;;;;5072294;28;20041;-61
2022/07/22 12:23:55;;;;;;;2.10;0.70;;;20.30;99.90;;;;;;5063325;28;20129;-61
2022/07/22 12:26:46;;;;;;;2.95;0.90;;;20.50;99.90;;;;;;5072242;28;20072;-61
2022/07/22 12:29:42;;;;;;;4.25;1.20;;;20.50;99.90;;;;;;5072969;28;20413;-60
2022/07/22 12:32:24;;;;;;;2.35;1.15;;;20.50;99.90;;;;;;5072742;28;20497;-61
2022/07/22 12:35:06;;;;;;;9.75;1.45;;;20.40;99.90;;;;;;5066480;28;20032;-61
2022/07/22 12:37:43;;;;;;;2.03;0.95;;;20.40;99.90;;;;;;5070894;28;20056;-62
2022/07/22 12:40:11;;;;;;;1.58;0.90;;;20.50;99.90;;;;;;5072655;28;20528;-61
2022/07/22 12:42:40;;;;;;;1.40;0.98;;;20.50;99.90;;;;;;5065091;28;20059;-61
2022/07/22 12:45:21;;;;;;;2.30;1.20;;;20.60;99.90;;;;;;5070953;28;20405;-61
2022/07/22 12:47:59;;;;;;;3.53;1.00;;;20.60;99.90;;;;;;5071935;28;20098;-61